createdAt,value
2024-02-22T00:09:58.438Z,96253.63
2024-02-22T00:20:20.036Z,96234.78
2024-02-22T00:30:40.976Z,96214.69
2024-02-22T00:41:02.118Z,96200.63
2024-02-22T00:51:23.196Z,96174.13
2024-02-22T01:01:44.873Z,96156.78
2024-02-22T01:12:06.510Z,96136.84
2024-02-22T01:22:27.471Z,96120.19
2024-02-22T01:32:49.279Z,96115.25
2024-02-22T01:43:10.292Z,96099.84
2024-02-22T01:53:32.034Z,96083.84
2024-02-22T02:03:53.478Z,96076.91
2024-02-22T02:14:15.605Z,96048.50
2024-02-22T02:24:37.710Z,96033.22
2024-02-22T02:34:58.441Z,96023.88
2024-02-22T02:45:19.185Z,96007.53
2024-02-22T02:55:40.198Z,95987.84
2024-02-22T03:06:01.151Z,95980.66
2024-02-22T03:16:21.976Z,95959.91
2024-02-22T03:26:42.765Z,95929.25
2024-02-22T03:37:03.740Z,95922.47
2024-02-22T03:47:24.705Z,95897.22
2024-02-22T03:57:45.594Z,95889.72
2024-02-22T04:08:06.569Z,95848.94
2024-02-22T04:18:27.748Z,95847.84
2024-02-22T04:28:48.557Z,95822.94
2024-02-22T04:39:13.322Z,95803.66
2024-02-22T04:49:35.401Z,95777.03
2024-02-22T04:59:56.170Z,95751.63
2024-02-22T05:10:17.061Z,95725.75
2024-02-22T05:20:39.324Z,95702.78
2024-02-22T05:31:25.219Z,95678.97
2024-02-22T05:41:47.086Z,95667.47
2024-02-22T05:52:08.158Z,95664.88
2024-02-22T06:02:29.004Z,95660.88
2024-02-22T06:12:49.685Z,95650.06
2024-02-22T06:23:11.128Z,95663.78
2024-02-22T06:33:34.784Z,95660.13
2024-02-22T06:43:58.273Z,95649.84
2024-02-22T06:54:20.263Z,95631.47
2024-02-22T07:04:41.399Z,95616.66
2024-02-22T07:15:03.144Z,95599.59
2024-02-22T07:25:24.926Z,95590.84
2024-02-22T07:35:46.358Z,95587.75
2024-02-22T07:46:07.407Z,95563.97
2024-02-22T07:56:28.042Z,95554.84
2024-02-22T08:06:49.020Z,95546.13
2024-02-22T08:17:10.015Z,95534.50
2024-02-22T08:27:30.663Z,95528.94
2024-02-22T08:37:51.576Z,95529.59
2024-02-22T08:48:24.841Z,95520.41
2024-02-22T08:58:45.844Z,95494.00
2024-02-22T09:09:08.677Z,95484.34
2024-02-22T09:19:29.943Z,95451.28
2024-02-22T09:29:50.711Z,95454.09
2024-02-22T09:40:15.184Z,95437.16
2024-02-22T09:50:37.666Z,95435.31
2024-02-22T10:00:58.545Z,95429.50
2024-02-22T10:11:21.036Z,95413.25
2024-02-22T10:21:42.714Z,95391.56
2024-02-22T10:32:05.522Z,95384.13
2024-02-22T10:42:28.401Z,95355.25
2024-02-22T10:52:53.437Z,95353.13
2024-02-22T11:03:17.743Z,95347.13
2024-02-22T11:13:38.723Z,95325.03
2024-02-22T11:24:10.364Z,95304.25
2024-02-22T11:34:31.966Z,95287.19
2024-02-22T11:44:56.227Z,95256.91
2024-02-22T11:55:18.580Z,95238.53
2024-02-22T12:05:40.907Z,95215.72
2024-02-22T12:16:09.713Z,95197.50
2024-02-22T12:26:30.615Z,95179.25
2024-02-22T12:36:51.529Z,95161.34
2024-02-22T12:47:14.145Z,95141.97
2024-02-22T12:57:35.572Z,95102.63
2024-02-22T13:07:57.207Z,95083.06
2024-02-22T13:18:18.572Z,95054.91
2024-02-22T13:28:39.740Z,95048.38
2024-02-22T13:39:00.717Z,95027.84
2024-02-22T13:49:22.368Z,95005.97
2024-02-22T13:59:43.382Z,94981.38
2024-02-22T14:10:05.914Z,94953.00
2024-02-22T14:20:27.027Z,94941.59
2024-02-22T14:30:47.691Z,94925.06
2024-02-22T14:41:08.468Z,94919.34
2024-02-22T14:51:29.522Z,94899.22
2024-02-22T15:01:50.439Z,94884.19
2024-02-22T15:12:11.386Z,94878.28
2024-02-22T15:22:32.846Z,94870.94
2024-02-22T15:32:57.519Z,94886.34
2024-02-22T15:43:18.817Z,94891.91
2024-02-22T15:53:39.652Z,94881.13
2024-02-22T16:04:02.965Z,94867.84
2024-02-22T16:14:24.326Z,94870.28
2024-02-22T16:24:44.896Z,94869.72
2024-02-22T16:35:06.442Z,94860.50
2024-02-22T16:45:27.700Z,94843.97
2024-02-22T16:55:48.743Z,94831.53
2024-02-22T17:06:09.580Z,94822.88
2024-02-22T17:16:30.841Z,94808.09
2024-02-22T17:26:53.963Z,94802.63
2024-02-22T17:37:15.363Z,94786.03
2024-02-22T17:47:36.679Z,94778.84
2024-02-22T17:57:57.694Z,94775.81
2024-02-22T18:08:18.558Z,94773.22
2024-02-22T18:18:41.636Z,94770.47
2024-02-22T18:29:02.901Z,94767.97
2024-02-22T18:39:25.839Z,94751.81
2024-02-22T18:49:46.905Z,94734.50
2024-02-22T19:00:12.412Z,94734.72
2024-02-22T19:10:34.822Z,94715.53
2024-02-22T19:20:59.134Z,94711.31
2024-02-22T19:31:21.573Z,94707.72
2024-02-22T19:41:42.701Z,94714.25
2024-02-22T19:52:03.846Z,94721.00
2024-02-22T20:02:26.760Z,94717.22
2024-02-22T20:12:48.230Z,94710.16
2024-02-22T20:23:09.463Z,94691.88
2024-02-22T20:33:30.229Z,94684.34
2024-02-22T20:43:51.048Z,94702.72
2024-02-22T20:54:11.854Z,94706.28
2024-02-22T21:04:33.372Z,94697.72
2024-02-22T21:14:54.732Z,94705.94
2024-02-22T21:25:15.888Z,94703.53
2024-02-22T21:35:36.980Z,94708.91
2024-02-22T21:45:57.854Z,94719.94
2024-02-22T21:56:18.514Z,94677.53
2024-02-22T22:06:39.521Z,94664.28
2024-02-22T22:17:01.029Z,94655.69
2024-02-22T22:27:22.162Z,94637.22
2024-02-22T22:37:49.105Z,94628.53
2024-02-22T22:48:10.517Z,94628.25
2024-02-22T22:58:31.156Z,94617.94
2024-02-22T23:08:52.094Z,94623.56
2024-02-22T23:19:13.720Z,94605.44
2024-02-22T23:29:34.931Z,94605.09
2024-02-22T23:39:55.620Z,94607.41
2024-02-22T23:50:16.369Z,94576.34
